Date,TemperatureHighF,TemperatureAvgF,TemperatureLowF,DewpointHighF,DewpointAvgF,DewpointLowF,HumidityHigh,HumidityAvg,HumidityLow,PressureMaxIn,PressureMinIn,WindSpeedMaxMPH,WindSpeedAvgMPH,GustSpeedMaxMPH,PrecipitationSumIn
2013-1-1,47.5,38.6,32.5,34.6,29.9,21.0,91,72,41,30.26,30.19,3,0,6,0.00
2013-1-2,46.1,39.1,36.7,27.6,21.3,20.0,55,49,40,30.25,30.19,1,0,1,0.00
2013-1-3,53.7,42.4,36.6,36.3,31.1,24.5,76,65,42,30.23,30.15,2,0,4,0.00
2013-1-4,49.0,41.3,39.7,27.1,24.3,21.4,59,51,36,30.27,30.22,3,0,4,0.00
2013-1-5,52.1,45.4,41.0,39.7,35.7,29.6,87,70,43,30.24,30.06,3,1,0,0.00
2013-1-6,41.9,39.6,38.0,39.6,37.4,35.9,97,92,79,30.14,30.05,2,0,0,0.04
2013-1-7,53.0,47.7,41.9,42.1,38.0,29.4,88,70,51,30.21,30.13,3,0,0,0.00
2013-1-8,49.8,49.5,49.3,42.2,42.1,42.0,76,76,75,30.18,30.16,2,1,2,0.00
2013-1-9,50.3,45.1,41.2,41.6,39.2,35.8,91,80,61,30.16,30.05,4,1,3,0.00
2013-1-10,40.4,33.5,29.6,33.0,30.4,28.1,96,89,66,30.09,29.96,1,0,4,0.03
2013-1-11,42.4,32.1,26.5,30.9,26.9,24.5,93,82,52,30.22,30.13,2,0,5,0.01
2013-1-12,40.5,32.0,26.1,24.7,16.9,12.2,71,54,33,30.21,30.13,4,1,6,0.00
2013-1-13,41.7,33.0,27.0,22.5,13.5,3.5,72,46,23,30.24,30.16,3,1,11,0.00
2013-1-14,48.4,35.7,28.3,23.1,9.7,4.5,57,34,24,30.38,30.21,4,2,6,0.00
2013-1-15,46.8,36.5,30.8,31.1,23.2,18.9,69,59,49,30.48,30.38,1,0,3,0.00
2013-1-16,55.7,44.5,36.8,31.2,26.3,18.5,72,51,28,30.44,30.29,2,0,5,0.00
2013-1-17,62.4,51.1,44.5,34.6,20.0,6.4,44,30,16,30.27,30.15,2,0,3,0.00
2013-1-18,64.0,49.1,44.7,27.4,20.6,16.5,46,33,19,30.22,30.15,2,1,4,0.00
2013-1-19,63.7,56.5,47.7,35.7,28.6,15.3,53,36,20,30.24,30.15,2,1,4,0.00
2013-1-20,61.4,55.7,47.8,28.4,23.2,17.8,31,28,25,30.19,30.15,2,1,5,0.00
2013-1-21,62.0,52.7,45.2,34.1,23.7,13.9,49,33,20,30.16,30.09,2,1,5,0.00
2013-1-22,66.2,59.1,49.1,34.0,23.2,13.5,38,26,15,30.12,30.00,4,1,8,0.00
2013-1-23,61.6,54.9,46.2,45.1,23.6,16.8,91,32,21,30.05,29.95,3,2,7,0.06
2013-1-24,56.3,52.4,49.4,50.5,46.2,43.0,93,80,72,30.13,30.03,3,2,6,0.00
2013-1-25,60.0,53.0,50.2,54.5,51.3,49.7,99,94,78,30.14,29.99,3,1,4,0.05
2013-1-26,53.1,48.7,40.4,50.1,47.0,36.5,99,94,76,29.98,29.87,5,2,10,0.00
2013-1-27,46.9,38.7,34.7,38.9,36.2,34.1,98,91,70,30.10,29.96,2,0,5,0.09
2013-1-28,50.1,39.1,33.2,34.3,29.4,26.1,85,69,48,30.21,30.11,2,1,6,0.00
2013-1-29,54.1,42.6,36.5,39.6,33.4,31.1,81,71,48,30.31,30.22,2,0,5,0.00
2013-1-30,57.2,51.6,45.7,43.0,37.6,34.2,78,59,50,30.31,30.23,2,1,6,0.00
2013-1-31,61.3,49.3,44.4,42.8,38.0,32.8,81,66,44,30.27,30.20,2,0,5,0.00
2013-2-1,65.6,53.4,47.5,42.1,34.3,28.8,64,49,34,30.19,30.11,2,1,5,0.00
2013-2-2,66.0,53.4,48.6,46.1,37.0,32.9,72,55,32,30.24,30.17,2,1,5,0.00
2013-2-3,63.4,50.6,44.3,44.5,31.3,26.6,62,48,36,30.17,30.08,2,0,4,0.00
2013-2-4,62.6,50.9,44.8,42.8,30.7,22.9,71,47,27,30.12,30.02,2,1,5,0.00
2013-2-5,55.8,47.7,42.5,45.3,38.2,32.0,90,70,55,30.03,29.97,4,1,8,0.00
2013-2-6,55.4,44.6,37.7,39.0,33.9,27.9,95,69,37,30.13,30.07,2,1,5,0.00
2013-2-7,41.4,40.4,39.0,38.7,37.4,35.9,94,89,83,30.11,30.05,5,3,5,0.05
2013-2-8,50.0,38.9,32.2,34.4,29.5,20.8,95,73,34,29.95,29.89,5,1,7,0.00
2013-2-9,50.3,40.0,32.1,30.3,21.8,18.2,61,48,31,30.02,29.94,3,1,9,0.00
2013-2-10,55.2,40.3,35.8,35.1,26.2,23.6,65,57,37,30.09,30.00,2,0,3,0.00
2013-2-11,57.9,47.3,41.5,30.2,19.6,15.6,46,33,22,30.16,30.07,6,2,8,0.00
2013-2-12,55.1,44.8,37.6,35.9,29.7,24.1,69,56,44,30.33,30.21,2,0,5,0.00
2013-2-13,53.2,41.5,37.8,36.3,34.3,33.2,85,76,52,30.30,30.28,1,0,1,0.00
2013-2-14,68.8,56.4,49.7,44.2,35.1,30.7,59,45,29,30.21,30.13,4,2,7,0.00
2013-2-15,68.1,57.3,50.6,40.6,28.7,22.5,52,34,23,30.23,30.18,2,1,5,0.00
2013-2-16,65.2,51.2,47.5,31.2,24.6,21.3,43,35,25,30.22,30.14,3,1,1,0.00
2013-2-17,62.1,49.0,44.2,41.4,34.3,31.3,64,58,40,29.99,29.91,2,1,7,0.00
2013-2-18,56.6,46.0,41.3,41.6,35.1,32.1,85,66,52,29.95,29.84,6,2,9,0.00
2013-2-19,38.3,35.4,32.7,35.6,33.4,31.9,97,92,88,29.86,29.69,6,4,13,0.17
2013-2-20,52.4,38.6,31.2,36.5,31.3,28.7,97,77,47,29.96,29.79,3,1,6,0.30
2013-2-21,53.6,40.8,33.8,37.2,31.7,26.6,92,73,42,30.11,30.00,2,1,7,0.00
2013-2-22,55.6,44.5,36.8,35.9,29.2,24.1,68,55,41,30.20,30.13,4,1,5,0.00
2013-2-23,51.6,44.5,40.6,39.9,36.9,29.7,93,76,46,30.16,30.07,6,2,7,0.00
2013-2-24,61.8,44.7,37.2,28.4,19.0,9.1,52,37,14,30.20,30.13,2,1,5,0.00
2013-2-25,54.5,38.7,37.0,33.0,26.3,25.3,64,61,44,30.24,30.20,3,2,4,0.00
2013-2-26,63.8,48.2,38.8,29.0,20.9,6.7,66,39,12,30.17,30.10,6,2,9,0.00
2013-2-27,64.1,49.8,43.6,31.0,17.1,10.7,42,27,22,30.28,30.18,3,2,6,0.00
2013-2-28,66.9,51.9,45.2,38.5,30.4,26.1,51,45,25,30.40,30.32,3,1,7,0.00
2013-3-1,70.1,56.3,48.6,47.2,42.1,38.3,73,60,40,30.38,30.23,3,1,6,0.00
2013-3-2,68.7,57.6,52.2,43.4,39.7,34.4,68,53,32,30.23,30.02,3,1,5,0.00
2013-3-3,55.2,52.5,49.3,48.2,45.3,42.2,90,77,63,30.02,29.96,4,2,7,0.01
2013-3-4,63.5,50.0,42.5,47.0,41.4,37.1,89,74,42,30.08,29.99,3,1,8,0.00
2013-3-5,53.6,48.4,43.8,45.2,41.2,35.1,89,77,52,29.98,29.82,5,2,7,0.00
2013-3-6,40.7,40.1,39.6,39.5,38.9,38.3,97,95,92,29.93,29.79,8,5,4,0.36
2013-3-7,50.2,42.9,37.4,39.2,36.1,33.5,86,77,63,29.95,29.91,2,1,3,0.00
2013-3-8,59.6,44.4,37.4,40.7,34.2,30.3,87,69,37,29.84,29.78,2,1,6,0.00
2013-3-9,55.6,42.1,37.2,38.0,35.3,26.2,94,78,32,30.19,29.98,2,1,1,0.00
2013-3-10,56.8,47.6,41.7,35.6,21.7,14.0,67,38,21,30.29,30.25,5,2,4,0.00
2013-3-11,57.1,48.9,46.1,42.3,39.7,34.2,85,72,51,30.23,30.21,1,0,3,0.00
2013-3-12,74.2,57.4,48.8,49.0,43.9,39.8,77,63,41,30.12,30.03,2,1,6,0.00
2013-3-13,74.6,61.0,52.4,50.1,43.9,36.0,71,56,27,30.12,30.05,3,1,6,0.00
2013-3-14,75.4,63.5,57.1,48.4,39.6,32.9,48,42,30,30.09,30.04,3,2,7,0.00
2013-3-15,74.6,59.4,52.9,48.5,41.4,36.7,64,52,26,30.04,29.98,2,1,5,0.00
2013-3-16,71.6,56.9,48.3,47.6,39.6,32.3,70,55,26,30.01,29.95,2,1,8,0.00
2013-3-17,62.6,62.6,62.6,37.3,37.3,37.3,39,39,39,30.04,30.04,1,1,1,0.00
2013-3-18,68.1,53.0,46.5,39.3,32.4,28.0,55,47,27,30.05,29.99,3,1,5,0.00
2013-3-19,65.1,55.0,50.2,49.4,40.3,35.6,87,59,35,30.06,30.00,4,1,8,0.04
2013-3-20,50.3,48.8,46.5,49.5,48.0,46.0,98,97,93,30.07,30.02,5,3,7,1.19
2013-3-21,59.7,53.2,44.7,50.4,45.7,35.0,99,78,48,30.06,29.95,2,1,6,0.00
2013-3-22,59.0,50.9,44.0,41.5,22.4,1.1,78,36,14,30.01,29.96,3,2,10,0.00
2013-3-23,62.7,49.4,43.8,34.8,19.0,11.6,43,30,23,30.07,30.01,2,1,4,0.00
2013-4-8,57.3,55.5,54.3,35.8,29.1,26.9,48,36,31,29.87,29.85,6,5,0,0.00
2013-4-9,65.3,59.2,53.0,34.2,29.4,27.7,42,32,25,30.04,30.03,2,1,5,0.00
2013-4-10,80.4,73.1,57.1,50.7,42.3,30.3,45,33,28,30.13,29.95,2,1,6,0.00
2013-4-11,72.5,68.5,58.8,50.9,43.4,35.5,73,42,26,29.89,29.77,2,1,5,0.00
2013-4-12,75.2,69.8,55.0,49.4,40.7,32.9,44,35,27,29.83,29.75,2,1,5,0.00
2013-4-13,74.7,68.9,58.8,49.1,43.6,38.1,53,41,29,29.79,29.72,2,1,5,0.00
2013-4-15,56.2,51.5,47.5,36.3,33.3,27.2,65,51,33,29.78,29.74,1,0,7,0.00
2013-4-16,59.4,52.9,41.6,27.5,21.6,16.7,53,31,19,30.05,29.98,7,3,9,0.00
2013-4-17,63.9,47.9,40.3,22.9,18.4,11.1,43,32,13,30.20,30.14,5,2,7,0.00
2013-4-18,69.1,66.8,61.9,35.9,34.3,32.5,36,30,26,30.17,30.15,1,0,7,0.00
2013-4-19,75.1,57.8,50.3,42.8,35.8,31.1,54,45,30,30.19,30.09,2,0,3,0.00
2013-4-20,77.2,72.6,65.5,46.5,38.5,31.6,39,29,26,30.00,29.91,2,1,5,0.00
2013-4-21,78.8,74.8,69.3,49.1,43.4,38.2,37,33,30,29.97,29.94,1,1,2,0.00
2013-4-22,81.4,79.3,71.6,45.2,43.2,37.6,29,28,27,29.83,29.79,1,1,5,0.00
2013-4-23,80.0,71.1,59.3,40.2,26.3,15.7,25,19,10,29.84,29.81,6,3,11,0.00
2013-4-24,81.5,74.2,61.1,30.1,24.3,19.4,23,16,11,29.80,29.75,6,4,11,0.00
2013-4-25,70.6,60.6,52.1,49.2,24.6,15.0,50,27,15,29.91,29.78,3,1,3,0.00
2013-4-26,76.0,59.4,52.9,52.4,46.0,42.3,72,62,39,30.12,30.02,2,0,5,0.00
2013-4-27,81.9,62.9,57.4,57.2,48.2,43.6,70,60,39,30.13,30.09,1,0,6,0.00
2013-4-28,84.3,67.9,58.6,53.4,41.8,32.1,47,39,30,29.98,29.87,2,1,4,0.00
2013-4-29,84.5,70.5,61.9,53.9,49.0,42.6,62,49,24,29.82,29.69,2,1,5,0.00
2013-4-30,60.2,59.6,59.2,47.1,46.9,46.7,64,63,62,29.67,29.66,2,2,2,0.00
2013-5-1,85.2,77.6,61.0,35.2,26.2,12.3,20,15,8,29.96,29.86,3,1,7,0.00
2013-5-2,85.2,72.0,65.1,36.4,25.6,17.7,20,18,16,30.09,30.05,4,3,6,0.00
2013-5-3,80.7,62.8,60.4,45.0,38.0,36.5,43,40,23,30.01,29.90,2,1,4,0.00
2013-5-4,83.9,72.3,65.7,40.3,29.9,21.5,33,21,15,29.73,29.45,8,4,7,0.00
2013-5-5,68.8,64.5,56.4,47.4,42.2,33.6,66,45,33,29.66,29.47,3,2,7,0.00
2013-5-6,63.2,54.7,49.6,52.6,48.2,44.4,98,80,59,29.86,29.75,3,1,4,0.35
2013-5-7,59.0,53.8,51.6,54.0,51.6,50.7,97,92,77,29.97,29.90,2,0,3,0.03
2013-5-8,67.0,57.1,52.4,55.8,52.0,50.3,98,85,57,30.06,29.98,3,1,5,0.01
2013-5-9,75.5,60.9,51.9,57.0,52.6,49.6,92,76,50,30.05,29.98,2,0,7,0.00
2013-5-10,82.4,67.3,57.2,61.3,56.8,54.3,90,72,43,30.08,30.00,3,1,5,0.00
2013-5-11,87.6,71.8,62.0,61.9,57.0,50.4,81,62,36,30.04,29.97,2,0,7,0.00
2013-5-12,89.1,73.8,64.5,57.6,49.5,38.5,67,47,18,30.03,29.93,3,2,5,0.00
2013-5-13,88.2,72.9,61.9,48.1,41.7,32.3,51,36,14,29.97,29.85,3,2,6,0.00
2013-5-14,85.6,74.1,64.7,55.8,46.3,37.2,44,38,27,29.84,29.78,3,1,10,0.00
2013-5-15,74.8,68.3,59.2,47.0,44.4,41.6,62,43,33,29.90,29.85,4,3,9,0.00
2013-5-16,65.8,60.9,53.1,51.6,48.6,46.5,84,65,52,29.91,29.85,5,3,10,0.00
2013-5-17,68.9,55.7,46.5,48.2,44.2,38.3,91,69,39,29.95,29.86,4,2,8,0.00
2013-5-18,67.1,53.1,50.6,45.6,39.8,36.8,71,61,46,30.04,29.98,1,1,1,0.00
2013-5-19,76.8,60.4,53.5,45.9,43.0,39.9,69,54,32,30.03,29.98,4,2,8,0.00
2013-9-8,95.2,90.3,80.1,48.7,43.2,37.5,26,20,16,29.77,29.68,2,1,6,0.00
2013-9-9,96.5,89.6,71.9,49.6,46.6,41.2,33,23,17,29.70,29.59,4,1,6,0.00
2013-9-10,81.1,75.8,72.7,41.9,39.4,37.7,28,27,25,29.65,29.64,2,2,4,0.00
2013-9-11,80.0,75.7,69.1,55.9,53.8,48.6,53,47,41,29.84,29.80,2,1,2,0.00
2013-9-14,84.6,84.6,84.6,59.6,59.6,59.6,43,43,43,29.68,29.68,1,1,1,0.00
2013-9-16,82.7,72.9,62.8,44.5,42.2,38.7,45,34,26,29.79,29.77,2,1,4,0.00
2013-9-17,72.6,72.2,71.9,52.3,52.0,51.7,49,49,49,29.74,29.73,3,2,3,0.00
2013-9-29,71.3,71.3,71.3,49.4,49.4,49.4,46,46,46,29.98,29.98,2,2,2,0.00
2013-9-30,70.0,65.0,56.4,57.9,56.4,55.0,97,75,62,30.01,29.91,3,1,11,0.00
2013-10-10,65.6,61.5,56.3,43.3,42.0,40.1,58,49,43,29.93,29.85,2,1,5,0.00
2013-10-20,75.9,74.0,69.3,37.0,35.4,33.9,27,25,23,29.94,29.92,2,1,3,0.00
2013-10-26,77.3,71.5,63.6,37.7,34.4,25.7,36,26,21,30.09,29.97,2,1,5,0.00
2013-10-31,65.7,57.5,52.2,43.5,42.7,41.6,71,58,43,30.10,30.06,2,1,4,0.00
2013-11-1,72.3,58.6,50.4,42.7,37.6,33.5,67,48,27,30.14,30.05,2,1,4,0.00
2013-11-10,71.4,65.4,57.2,35.9,31.6,27.0,38,29,20,30.06,30.01,3,1,5,0.00
2013-11-11,71.3,64.7,58.7,30.5,27.0,18.3,34,25,16,30.11,30.03,2,1,4,0.00
2013-12-6,39.7,36.0,30.9,28.1,22.3,18.5,89,58,49,30.19,30.04,6,3,8,0.00
2013-12-7,32.7,28.6,23.2,31.9,26.8,21.0,97,93,86,30.24,30.03,2,0,3,0.01
2013-12-8,36.4,27.1,22.0,27.4,21.7,18.3,91,81,57,30.32,30.24,2,1,5,0.01
2013-12-9,41.8,37.6,32.4,26.2,22.3,10.3,74,54,34,30.43,30.35,2,0,3,0.03
2013-12-10,48.2,42.9,33.5,28.1,23.2,16.2,65,46,33,30.36,30.20,1,0,4,0.05
2013-12-11,54.1,49.8,39.2,32.6,28.4,24.6,60,44,35,30.24,30.19,1,0,4,0.00
2013-12-12,59.3,50.4,43.1,28.9,24.2,17.2,52,37,21,30.25,30.14,2,1,5,0.00
2013-12-13,58.5,48.9,39.7,31.3,23.8,15.0,51,38,23,30.27,30.19,3,1,6,0.00
2013-12-14,59.8,54.0,47.7,34.8,30.6,26.8,53,41,31,30.38,30.29,2,0,4,0.00
2013-12-15,63.6,59.9,54.2,33.2,30.4,24.5,43,33,25,30.31,30.23,1,0,3,0.00
2013-12-16,69.7,63.7,53.8,39.2,33.4,24.4,49,33,25,30.20,30.10,2,0,4,0.00
2013-12-17,70.8,64.1,57.2,37.9,31.9,25.4,45,31,19,30.13,30.01,3,1,8,0.00
2013-12-18,64.0,56.5,48.0,39.6,34.2,25.1,72,45,29,29.90,29.68,3,1,6,0.00
2013-12-19,53.9,49.0,43.1,37.7,25.3,19.2,78,40,32,29.82,29.67,7,4,11,0.00
2013-12-20,58.3,50.9,40.8,26.8,15.6,6.2,46,25,14,29.96,29.89,4,0,5,0.00
2013-12-21,59.6,55.5,49.0,37.7,35.8,30.9,57,48,37,30.02,29.93,2,1,5,0.00
2013-12-22,62.4,57.2,53.3,39.6,37.4,32.4,57,48,41,30.23,30.16,1,0,2,0.00
2013-12-23,62.6,57.7,45.9,37.8,34.8,32.1,59,43,34,30.38,30.31,2,1,3,0.00